Time;durP1;ratioP1;P1;durP2;ratioP2;P2;SDS_P1;SDS_P2;PMS_P1;PMS_P2;Temp;Humidity;BMP_temperature;BMP_pressure;BME280_temperature;BME280_humidity;BME280_pressure;Samples;Min_cycle;Max_cycle;Signal;HPM_P1;HPM_P2
2023/12/26 00:00:26;;;;;;;99.53;70.50;;;8.40;95.70;;;;;;5035968;28;20022;-69
2023/12/26 00:02:51;;;;;;;157.23;112.95;;;8.30;96.10;;;;;;5035789;28;20025;-67
2023/12/26 00:05:17;;;;;;;171.93;125.25;;;8.30;97.00;;;;;;5035956;28;20029;-60
2023/12/26 00:07:43;;;;;;;153.88;113.40;;;8.10;97.60;;;;;;5035837;28;20487;-71
2023/12/26 00:10:10;;;;;;;158.48;115.72;;;8.00;98.10;;;;;;5034217;28;20071;-64
2023/12/26 00:12:36;;;;;;;129.13;96.68;;;8.00;98.30;;;;;;5035847;28;20068;-70
2023/12/26 00:15:02;;;;;;;147.70;107.85;;;8.00;98.40;;;;;;5035658;28;20426;-65
2023/12/26 00:17:27;;;;;;;128.00;94.95;;;8.10;98.20;;;;;;5035523;28;20033;-68
2023/12/26 00:19:53;;;;;;;118.38;90.30;;;8.10;98.20;;;;;;5035591;28;20037;-71
2023/12/26 00:22:19;;;;;;;111.82;81.57;;;8.00;98.00;;;;;;5035512;28;20023;-66
2023/12/26 00:24:44;;;;;;;101.55;76.97;;;8.10;97.50;;;;;;5034058;28;20021;-69
2023/12/26 00:27:10;;;;;;;95.60;71.03;;;8.20;97.20;;;;;;5035446;28;20420;-64
2023/12/26 00:29:36;;;;;;;83.88;64.43;;;8.20;96.80;;;;;;5035433;28;20104;-66
2023/12/26 00:32:02;;;;;;;79.22;59.08;;;8.20;96.30;;;;;;5035514;28;20025;-63
2023/12/26 00:34:28;;;;;;;71.43;54.17;;;8.20;96.10;;;;;;5035319;28;20021;-63
2023/12/26 00:36:54;;;;;;;72.55;53.90;;;8.20;96.00;;;;;;5033879;28;20033;-64
2023/12/26 00:39:20;;;;;;;86.55;63.97;;;8.20;95.70;;;;;;5035008;28;20025;-66
2023/12/26 00:41:46;;;;;;;72.78;54.08;;;8.10;96.50;;;;;;5033868;28;20033;-63
2023/12/26 00:44:11;;;;;;;58.90;47.00;;;8.00;97.00;;;;;;5035061;28;20021;-67
2023/12/26 00:46:37;;;;;;;66.22;51.25;;;8.00;96.70;;;;;;5035039;28;20021;-66
2023/12/26 00:49:03;;;;;;;84.10;60.75;;;8.00;96.30;;;;;;5034953;28;20045;-69
2023/12/26 00:51:30;;;;;;;76.22;58.08;;;8.00;96.70;;;;;;5033738;28;20452;-68
2023/12/26 00:53:56;;;;;;;72.68;54.58;;;7.90;97.30;;;;;;5034835;28;20025;-66
2023/12/26 00:56:22;;;;;;;66.55;50.38;;;7.80;98.00;;;;;;5034907;28;20037;-68
2023/12/26 00:58:48;;;;;;;67.43;50.47;;;7.80;98.10;;;;;;5034793;28;20045;-69
2023/12/26 01:01:14;;;;;;;63.22;46.90;;;7.80;97.80;;;;;;5034757;28;20025;-63
2023/12/26 01:03:41;;;;;;;60.95;44.90;;;7.70;97.50;;;;;;5034842;28;20033;-65
2023/12/26 01:06:07;;;;;;;61.53;45.65;;;7.80;97.40;;;;;;5034637;28;20360;-65
2023/12/26 01:08:32;;;;;;;71.35;49.20;;;7.80;97.20;;;;;;5034506;28;20032;-68
2023/12/26 01:10:58;;;;;;;64.15;46.90;;;7.90;97.10;;;;;;5034723;28;20021;-65
2023/12/26 01:13:25;;;;;;;63.25;46.20;;;7.90;96.90;;;;;;5034542;28;20026;-70
2023/12/26 01:15:51;;;;;;;76.70;55.70;;;7.90;96.40;;;;;;5034575;28;20563;-62
2023/12/26 01:18:16;;;;;;;104.20;74.70;;;7.70;97.00;;;;;;5034539;28;20101;-62
2023/12/26 01:20:42;;;;;;;68.60;50.92;;;7.50;98.60;;;;;;5034423;28;20071;-70
2023/12/26 01:23:08;;;;;;;62.60;47.78;;;7.40;98.90;;;;;;5034092;28;20088;-66
2023/12/26 01:25:33;;;;;;;59.67;43.97;;;7.50;98.40;;;;;;5034428;28;20025;-59
2023/12/26 01:28:00;;;;;;;53.92;40.05;;;7.60;97.40;;;;;;5034230;28;20029;-64
2023/12/26 01:30:25;;;;;;;55.95;41.17;;;7.60;97.20;;;;;;5034318;28;20025;-68
2023/12/26 01:32:51;;;;;;;53.10;37.95;;;7.60;96.90;;;;;;5034211;28;20533;-64
2023/12/26 01:35:17;;;;;;;47.70;36.45;;;7.70;96.60;;;;;;5033753;28;20442;-59
2023/12/26 01:37:42;;;;;;;47.75;36.63;;;7.60;97.00;;;;;;5033857;28;20108;-67
2023/12/26 01:40:10;;;;;;;46.53;33.60;;;7.40;97.70;;;;;;5034044;28;20022;-67
2023/12/26 01:42:37;;;;;;;41.88;32.50;;;7.40;98.00;;;;;;5034058;28;20075;-66
2023/12/26 01:45:03;;;;;;;36.28;28.35;;;7.40;97.70;;;;;;5033927;28;20105;-65
2023/12/26 01:47:29;;;;;;;39.03;29.13;;;7.40;97.70;;;;;;5034079;28;20021;-68
2023/12/26 01:49:55;;;;;;;37.30;28.65;;;7.40;97.30;;;;;;5033909;28;20042;-62
2023/12/26 01:52:21;;;;;;;38.30;27.70;;;7.50;97.30;;;;;;5033533;28;20067;-68
2023/12/26 01:54:47;;;;;;;34.25;27.15;;;7.50;97.20;;;;;;5033755;28;20017;-64
2023/12/26 01:57:13;;;;;;;39.70;29.90;;;7.50;96.90;;;;;;5033663;28;20037;-69
2023/12/26 01:59:42;;;;;;;41.22;31.08;;;7.50;96.70;;;;;;5033551;28;20072;-64
2023/12/26 02:02:08;;;;;;;39.17;29.20;;;7.50;96.60;;;;;;5033641;28;20069;-67
2023/12/26 02:04:34;;;;;;;40.92;29.77;;;7.50;96.60;;;;;;5033773;28;20048;-61
2023/12/26 02:07:00;;;;;;;42.88;31.00;;;7.50;96.30;;;;;;5033417;28;20022;-71
2023/12/26 02:09:26;;;;;;;65.45;46.92;;;7.50;96.60;;;;;;5033686;28;20028;-64
2023/12/26 02:11:55;;;;;;;70.88;52.00;;;7.40;97.00;;;;;;5033637;28;20025;-67
2023/12/26 02:14:21;;;;;;;51.50;38.70;;;7.30;97.90;;;;;;5033382;28;20045;-67
2023/12/26 02:16:48;;;;;;;58.85;43.15;;;7.20;98.00;;;;;;5032149;28;20392;-66
2023/12/26 02:19:15;;;;;;;70.90;51.45;;;7.10;98.30;;;;;;5033521;28;20083;-62
2023/12/26 02:21:41;;;;;;;56.13;40.63;;;7.10;98.70;;;;;;5033041;28;20014;-71
2023/12/26 02:24:07;;;;;;;56.65;41.35;;;7.00;98.80;;;;;;5033505;28;20536;-67
2023/12/26 02:26:36;;;;;;;50.78;37.88;;;7.10;98.50;;;;;;5033630;28;20083;-68
2023/12/26 02:29:02;;;;;;;50.30;35.75;;;7.10;98.10;;;;;;5033280;28;20480;-62
2023/12/26 02:31:29;;;;;;;44.40;33.60;;;7.10;98.10;;;;;;5033290;28;20029;-66
2023/12/26 02:33:55;;;;;;;43.75;31.92;;;7.10;97.80;;;;;;5033262;28;20017;-65
2023/12/26 02:36:21;;;;;;;36.03;28.10;;;7.10;97.60;;;;;;5032975;28;20026;-70
2023/12/26 02:38:47;;;;;;;38.17;28.73;;;7.10;97.50;;;;;;5033231;28;20086;-70
2023/12/26 02:41:13;;;;;;;43.20;31.85;;;7.20;97.40;;;;;;5033147;28;20540;-62
2023/12/26 02:43:38;;;;;;;39.53;29.48;;;7.10;97.50;;;;;;5033239;28;20029;-64
2023/12/26 02:46:04;;;;;;;43.00;32.42;;;7.10;97.90;;;;;;5033091;28;20025;-68
2023/12/26 02:48:30;;;;;;;41.13;31.55;;;7.10;98.00;;;;;;5035930;28;20079;-71
2023/12/26 02:50:55;;;;;;;38.88;29.25;;;7.00;97.50;;;;;;5037178;28;20025;-64
2023/12/26 02:53:21;;;;;;;33.70;27.08;;;7.00;97.50;;;;;;5037160;28;20415;-67
2023/12/26 02:55:53;;;;;;;33.35;25.58;;;7.00;97.10;;;;;;5037033;28;20030;-63
2023/12/26 02:58:20;;;;;;;27.23;21.40;;;7.00;96.60;;;;;;5036937;28;20128;-68
2023/12/26 03:00:47;;;;;;;27.42;21.92;;;7.00;96.30;;;;;;5037042;28;20079;-64
2023/12/26 03:03:13;;;;;;;27.50;20.80;;;7.00;96.30;;;;;;5037038;28;20032;-61
2023/12/26 03:05:38;;;;;;;24.45;18.92;;;6.80;97.60;;;;;;5035684;28;20104;-65
2023/12/26 03:08:05;;;;;;;22.48;18.15;;;6.80;98.10;;;;;;5036897;28;20052;-68
2023/12/26 03:10:30;;;;;;;29.58;21.63;;;6.80;98.20;;;;;;5036909;28;20022;-67
2023/12/26 03:12:56;;;;;;;27.13;20.85;;;6.80;98.20;;;;;;5036882;28;20021;-65
2023/12/26 03:15:22;;;;;;;26.30;19.17;;;6.80;98.20;;;;;;5036924;28;20100;-72
2023/12/26 03:17:47;;;;;;;32.50;23.50;;;6.80;98.20;;;;;;5036805;28;20411;-63
2023/12/26 03:20:13;;;;;;;35.45;28.13;;;6.80;98.10;;;;;;5036519;28;20026;-69
2023/12/26 03:22:40;;;;;;;34.67;27.13;;;6.80;98.50;;;;;;5036535;28;20025;-65
2023/12/26 03:25:06;;;;;;;36.97;27.20;;;6.70;98.80;;;;;;5036557;28;20098;-67
2023/12/26 03:27:32;;;;;;;40.63;31.30;;;6.70;98.80;;;;;;5036677;28;20037;-69
2023/12/26 03:29:58;;;;;;;37.05;26.98;;;6.60;99.30;;;;;;5036504;28;20018;-64
2023/12/26 03:32:23;;;;;;;40.38;30.52;;;6.40;99.60;;;;;;5036386;28;20022;-72
2023/12/26 03:34:49;;;;;;;38.25;27.30;;;6.40;99.90;;;;;;5036313;28;20018;-65
2023/12/26 03:37:15;;;;;;;29.30;22.58;;;6.40;99.90;;;;;;5036400;28;20075;-68
2023/12/26 03:39:41;;;;;;;28.55;22.13;;;6.40;99.90;;;;;;5036334;28;20032;-68
2023/12/26 03:42:07;;;;;;;29.25;21.02;;;6.50;99.20;;;;;;5036554;28;20026;-63
2023/12/26 03:44:33;;;;;;;23.42;18.50;;;6.50;98.90;;;;;;5036329;28;20025;-67
2023/12/26 03:46:59;;;;;;;19.52;16.52;;;6.50;98.20;;;;;;5036189;28;20033;-64
2023/12/26 03:49:24;;;;;;;20.52;16.73;;;6.60;97.80;;;;;;5036216;28;20018;-67
2023/12/26 03:51:50;;;;;;;21.60;16.70;;;6.60;97.40;;;;;;5036200;28;20026;-72
2023/12/26 03:54:16;;;;;;;18.95;14.65;;;6.60;97.70;;;;;;5036094;28;20025;-64
2023/12/26 03:56:41;;;;;;;20.27;14.27;;;6.50;98.20;;;;;;5036068;28;20057;-66
2023/12/26 03:59:07;;;;;;;16.30;13.57;;;6.50;98.30;;;;;;5035620;28;20075;-68
2023/12/26 04:01:33;;;;;;;21.00;14.63;;;6.50;98.20;;;;;;5036108;28;20021;-64
2023/12/26 04:03:59;;;;;;;21.42;16.55;;;6.50;98.20;;;;;;5035872;28;20377;-63
2023/12/26 04:06:25;;;;;;;24.23;18.05;;;6.50;98.30;;;;;;5036093;28;20034;-61
2023/12/26 04:08:51;;;;;;;23.98;17.98;;;6.40;98.90;;;;;;5035927;28;20199;-67
2023/12/26 04:11:16;;;;;;;30.75;22.27;;;6.30;99.30;;;;;;5035707;28;20048;-65
2023/12/26 04:13:42;;;;;;;22.20;17.33;;;6.20;99.90;;;;;;5035701;28;20104;-66
2023/12/26 04:16:08;;;;;;;22.75;17.75;;;6.20;99.90;;;;;;5035539;28;20029;-70
2023/12/26 04:18:33;;;;;;;30.70;22.40;;;6.20;99.80;;;;;;5035663;28;20076;-66
2023/12/26 04:20:59;;;;;;;24.83;18.27;;;6.20;99.80;;;;;;5035740;28;20030;-64
2023/12/26 04:23:25;;;;;;;23.88;17.90;;;6.10;99.90;;;;;;5035589;28;20156;-64
2023/12/26 04:25:51;;;;;;;28.63;20.67;;;6.20;99.60;;;;;;5035484;28;20467;-67
2023/12/26 04:28:17;;;;;;;35.75;26.25;;;6.20;98.40;;;;;;5035479;28;20026;-70
2023/12/26 04:30:42;;;;;;;32.80;24.60;;;6.00;99.90;;;;;;5035308;28;20036;-64
2023/12/26 04:33:10;;;;;;;27.85;20.85;;;5.90;99.90;;;;;;5035225;28;20354;-71
2023/12/26 04:35:36;;;;;;;28.45;21.58;;;5.90;99.90;;;;;;5035519;28;20026;-70
2023/12/26 04:38:02;;;;;;;26.58;21.52;;;5.90;99.90;;;;;;5035365;28;20021;-65
2023/12/26 04:40:28;;;;;;;35.75;27.90;;;6.00;99.90;;;;;;5035311;28;20388;-69
2023/12/26 04:42:53;;;;;;;35.45;26.77;;;6.00;99.90;;;;;;5035195;28;20024;-69
2023/12/26 04:45:19;;;;;;;44.17;32.03;;;5.90;99.90;;;;;;5034991;28;20380;-63
2023/12/26 04:47:45;;;;;;;33.85;25.73;;;5.90;99.90;;;;;;5033901;28;20036;-67
2023/12/26 04:50:10;;;;;;;32.25;24.92;;;5.80;99.90;;;;;;5035010;28;20021;-67
2023/12/26 04:52:36;;;;;;;34.65;26.25;;;5.90;99.90;;;;;;5035027;28;20021;-70
2023/12/26 04:55:02;;;;;;;27.92;22.65;;;5.90;99.90;;;;;;5035017;28;20108;-65
2023/12/26 04:57:28;;;;;;;30.25;24.58;;;6.00;99.90;;;;;;5034554;28;20033;-68
2023/12/26 04:59:54;;;;;;;35.20;25.65;;;6.00;99.90;;;;;;5034849;28;20025;-66
2023/12/26 05:02:19;;;;;;;41.25;30.33;;;6.10;99.90;;;;;;5034792;28;20498;-65
2023/12/26 05:04:45;;;;;;;45.80;34.83;;;6.00;99.90;;;;;;5034671;28;20384;-67
2023/12/26 05:07:11;;;;;;;42.33;31.83;;;6.00;99.90;;;;;;5034750;28;20045;-66
2023/12/26 05:09:36;;;;;;;56.05;39.13;;;5.90;99.90;;;;;;5034449;28;20387;-68
2023/12/26 05:12:03;;;;;;;53.45;39.38;;;5.80;99.90;;;;;;5034267;28;20029;-68
2023/12/26 05:14:28;;;;;;;47.55;34.00;;;5.70;99.90;;;;;;5034290;28;20108;-64
2023/12/26 05:16:54;;;;;;;37.88;30.17;;;5.70;99.90;;;;;;5034488;28;20109;-62
2023/12/26 05:19:20;;;;;;;41.28;30.38;;;5.70;99.90;;;;;;5034556;28;20021;-67
2023/12/26 05:21:46;;;;;;;38.42;28.88;;;5.70;99.90;;;;;;5034585;28;20021;-67
2023/12/26 05:24:11;;;;;;;32.33;25.27;;;5.80;99.90;;;;;;5034376;28;20018;-65
2023/12/26 05:26:42;;;;;;;27.88;22.00;;;5.80;99.90;;;;;;5034405;28;20426;-65
2023/12/26 05:29:08;;;;;;;24.15;20.10;;;5.90;99.90;;;;;;5034003;28;20357;-70
2023/12/26 05:31:34;;;;;;;24.50;19.40;;;5.90;99.20;;;;;;5034342;28;20028;-72
2023/12/26 05:34:03;;;;;;;21.85;16.98;;;5.90;98.90;;;;;;5034301;28;20021;-59
2023/12/26 05:36:30;;;;;;;18.77;15.40;;;5.90;98.80;;;;;;5034132;28;20468;-65
2023/12/26 05:38:57;;;;;;;17.10;14.55;;;5.90;98.80;;;;;;5034431;28;20055;-63
2023/12/26 05:41:23;;;;;;;20.70;15.07;;;5.90;98.50;;;;;;5034095;28;20021;-68
2023/12/26 05:43:49;;;;;;;19.45;15.55;;;5.90;98.60;;;;;;5033761;28;20482;-65
2023/12/26 05:46:14;;;;;;;18.30;14.00;;;5.90;98.70;;;;;;5033943;28;20037;-64
2023/12/26 05:48:43;;;;;;;16.63;14.85;;;5.80;99.10;;;;;;5032829;28;20021;-69
2023/12/26 05:51:09;;;;;;;17.58;14.35;;;5.90;98.80;;;;;;5033799;28;20025;-65
2023/12/26 05:53:35;;;;;;;22.10;16.75;;;5.80;99.10;;;;;;5032585;28;20025;-66
2023/12/26 05:56:01;;;;;;;20.52;15.30;;;5.80;99.80;;;;;;5033781;28;20037;-64
2023/12/26 05:58:27;;;;;;;19.63;15.00;;;5.70;99.90;;;;;;5033349;28;20049;-63
2023/12/26 06:00:53;;;;;;;24.08;18.77;;;5.70;99.90;;;;;;5033789;28;20034;-71
2023/12/26 06:03:19;;;;;;;28.00;20.55;;;5.80;99.90;;;;;;5033770;28;20025;-65
2023/12/26 06:05:46;;;;;;;50.95;35.97;;;5.80;99.90;;;;;;5036667;28;20033;-59
2023/12/26 06:08:12;;;;;;;44.95;32.83;;;5.80;99.90;;;;;;5047506;28;20024;-62
2023/12/26 06:10:38;;;;;;;45.42;32.85;;;5.70;99.90;;;;;;5053623;28;20040;-60
2023/12/26 06:13:04;;;;;;;71.00;52.35;;;5.70;99.90;;;;;;5052908;28;20029;-62
2023/12/26 06:15:30;;;;;;;62.22;48.40;;;5.60;99.90;;;;;;5052787;28;20024;-65
2023/12/26 06:17:58;;;;;;;59.30;44.38;;;5.50;99.90;;;;;;5053602;28;20021;-67
2023/12/26 06:20:26;;;;;;;69.10;51.05;;;5.50;99.90;;;;;;5052084;28;20025;-64
2023/12/26 06:22:55;;;;;;;49.85;38.80;;;5.40;99.90;;;;;;5053097;28;20135;-65
2023/12/26 06:25:21;;;;;;;51.03;37.38;;;5.40;99.90;;;;;;5051920;28;20028;-62
2023/12/26 06:27:47;;;;;;;44.65;33.35;;;5.50;99.90;;;;;;5052618;28;20040;-68
2023/12/26 06:30:13;;;;;;;43.40;32.75;;;5.60;99.90;;;;;;5052908;28;20021;-60
2023/12/26 06:32:39;;;;;;;93.45;67.38;;;5.60;99.90;;;;;;5043845;28;20032;-66
2023/12/26 06:35:05;;;;;;;211.07;143.80;;;5.60;99.90;;;;;;5044315;28;20036;-62
2023/12/26 06:37:30;;;;;;;239.30;169.25;;;5.40;99.90;;;;;;5037600;28;20048;-60
2023/12/26 06:39:56;;;;;;;204.45;148.85;;;5.30;99.90;;;;;;5033323;28;20026;-61
2023/12/26 06:42:22;;;;;;;235.40;168.48;;;5.20;99.90;;;;;;5032994;28;20082;-61
2023/12/26 06:44:48;;;;;;;194.27;144.38;;;5.20;99.90;;;;;;5034807;28;20044;-61
2023/12/26 06:47:14;;;;;;;169.70;119.63;;;5.20;99.90;;;;;;5046494;28;20418;-69
2023/12/26 06:49:47;;;;;;;180.13;120.63;;;5.20;99.90;;;;;;5052412;28;20052;-67
2023/12/26 06:52:16;;;;;;;147.70;104.75;;;5.40;99.90;;;;;;5052741;28;20025;-64
2023/12/26 06:54:43;;;;;;;128.75;93.15;;;5.50;99.90;;;;;;5052744;28;20118;-72
2023/12/26 06:57:15;;;;;;;113.80;84.68;;;5.50;99.90;;;;;;5052210;28;20029;-70
2023/12/26 06:59:48;;;;;;;96.80;74.20;;;5.60;99.90;;;;;;5050972;28;20056;-67
2023/12/26 07:02:15;;;;;;;108.05;75.78;;;5.70;99.90;;;;;;5051830;28;20027;-68
2023/12/26 07:04:49;;;;;;;136.85;93.65;;;5.70;99.90;;;;;;5052387;28;20051;-65
2023/12/26 07:07:15;;;;;;;172.05;117.75;;;5.80;99.90;;;;;;5051514;28;20021;-66
2023/12/26 07:09:41;;;;;;;199.80;130.60;;;5.70;99.90;;;;;;5052682;28;20119;-64
2023/12/26 07:12:07;;;;;;;198.02;132.95;;;5.60;99.90;;;;;;5052331;28;20387;-70
2023/12/26 07:14:33;;;;;;;173.18;117.20;;;5.50;99.90;;;;;;5050194;28;20091;-69
2023/12/26 07:16:58;;;;;;;179.05;116.18;;;5.40;99.90;;;;;;5048683;28;20032;-63
2023/12/26 07:19:24;;;;;;;155.43;103.63;;;5.50;99.90;;;;;;5049432;28;20418;-68
2023/12/26 07:21:52;;;;;;;135.73;100.13;;;5.60;99.90;;;;;;5049514;28;20030;-65
2023/12/26 07:24:17;;;;;;;135.13;96.90;;;5.70;99.90;;;;;;5048562;28;20433;-69
2023/12/26 07:26:43;;;;;;;113.18;83.65;;;5.80;99.90;;;;;;5051030;28;20017;-68
2023/12/26 07:29:09;;;;;;;119.82;87.70;;;5.90;99.90;;;;;;5052420;28;20449;-65
2023/12/26 07:31:35;;;;;;;228.38;148.95;;;6.00;99.90;;;;;;5052515;28;20383;-66
2023/12/26 07:34:02;;;;;;;268.08;187.45;;;5.90;99.90;;;;;;5054169;28;20092;-70
2023/12/26 07:36:28;;;;;;;211.45;145.95;;;5.70;99.90;;;;;;5055261;28;20060;-68
2023/12/26 07:38:54;;;;;;;183.93;127.13;;;5.60;99.90;;;;;;5056367;28;20475;-69
2023/12/26 07:41:19;;;;;;;214.73;150.98;;;5.70;99.90;;;;;;5055999;28;20025;-65
2023/12/26 07:43:47;;;;;;;219.27;151.27;;;5.70;99.90;;;;;;5052392;28;20021;-65
2023/12/26 07:46:13;;;;;;;225.77;157.60;;;5.80;99.90;;;;;;5035541;28;20030;-64
2023/12/26 07:48:39;;;;;;;202.82;147.35;;;6.10;99.90;;;;;;5034318;28;20137;-71
2023/12/26 07:51:04;;;;;;;181.38;132.90;;;6.50;99.90;;;;;;5034654;28;20033;-68
2023/12/26 07:53:30;;;;;;;166.10;120.60;;;7.10;99.90;;;;;;5034590;28;20490;-61
2023/12/26 07:55:56;;;;;;;138.90;104.03;;;7.80;97.80;;;;;;5034316;28;20040;-64
2023/12/26 07:58:22;;;;;;;138.82;105.68;;;9.50;96.30;;;;;;5034811;28;20046;-63
2023/12/26 08:00:47;;;;;;;120.80;94.78;;;12.10;68.70;;;;;;5046760;28;20505;-60
2023/12/26 08:03:15;;;;;;;107.32;86.20;;;13.90;57.30;;;;;;5054429;28;20020;-66
2023/12/26 08:05:44;;;;;;;99.32;78.28;;;15.40;53.10;;;;;;5054640;28;20452;-62
2023/12/26 08:08:11;;;;;;;97.50;76.28;;;16.70;49.40;;;;;;5048255;28;20029;-69
2023/12/26 08:10:37;;;;;;;88.10;73.20;;;18.00;44.70;;;;;;5035565;28;20112;-68
2023/12/26 08:13:03;;;;;;;77.72;64.78;;;18.80;41.10;;;;;;5045784;28;20031;-63
2023/12/26 08:15:35;;;;;;;73.18;58.05;;;19.60;40.30;;;;;;5039030;28;20030;-67
2023/12/26 08:18:02;;;;;;;56.60;48.70;;;20.30;38.90;;;;;;5038922;28;20071;-70
2023/12/26 08:20:28;;;;;;;48.83;42.20;;;21.20;36.90;;;;;;5043974;28;20037;-63
2023/12/26 08:23:00;;;;;;;42.53;36.88;;;21.70;35.80;;;;;;5034499;28;20037;-62
2023/12/26 08:25:26;;;;;;;35.22;31.52;;;22.30;34.40;;;;;;5038396;28;20040;-67
2023/12/26 08:28:01;;;;;;;33.58;30.10;;;22.50;33.80;;;;;;5038719;28;20079;-69
2023/12/26 08:30:28;;;;;;;29.63;26.42;;;22.70;34.00;;;;;;5041575;28;20540;-68
2023/12/26 08:32:54;;;;;;;27.23;24.50;;;23.00;33.00;;;;;;5041903;28;20491;-65
2023/12/26 08:35:19;;;;;;;27.48;24.58;;;23.10;32.50;;;;;;5038768;28;20033;-66
2023/12/26 08:37:45;;;;;;;30.02;27.00;;;23.10;33.10;;;;;;5040612;28;20037;-64
2023/12/26 08:40:11;;;;;;;47.72;42.50;;;23.10;33.40;;;;;;5034236;28;20548;-70
2023/12/26 08:42:37;;;;;;;51.63;46.13;;;22.50;32.50;;;;;;5039561;28;20079;-67
2023/12/26 08:45:03;;;;;;;50.20;44.97;;;21.80;33.90;;;;;;5036596;28;20041;-67
2023/12/26 08:47:29;;;;;;;49.65;44.70;;;21.90;34.60;;;;;;5035991;28;20037;-69
2023/12/26 08:49:56;;;;;;;48.85;43.75;;;22.00;34.70;;;;;;5037070;28;20087;-66
2023/12/26 08:52:23;;;;;;;42.60;38.40;;;22.00;34.80;;;;;;5040369;28;20094;-63
2023/12/26 08:54:49;;;;;;;43.58;38.60;;;21.80;36.00;;;;;;5037569;28;20022;-65
2023/12/26 08:57:15;;;;;;;46.65;41.75;;;21.70;35.00;;;;;;5038137;28;20036;-71
2023/12/26 08:59:40;;;;;;;42.40;38.03;;;21.00;36.30;;;;;;5040283;28;20045;-64
2023/12/26 09:02:06;;;;;;;36.80;32.90;;;20.60;37.80;;;;;;5034334;28;20025;-65
2023/12/26 09:04:32;;;;;;;35.70;32.03;;;20.30;38.50;;;;;;5036582;28;20095;-67
2023/12/26 09:06:59;;;;;;;33.83;30.42;;;20.20;38.20;;;;;;5036645;28;20045;-61
2023/12/26 09:09:26;;;;;;;40.03;35.80;;;20.10;38.10;;;;;;5040628;28;20025;-70
2023/12/26 09:12:03;;;;;;;42.97;38.53;;;19.90;38.10;;;;;;5038973;28;20033;-66
2023/12/26 09:17:52;;;;;;;57.33;51.63;;;19.50;38.50;;;;;;5044730;28;20087;-66
2023/12/26 09:20:21;;;;;;;54.35;49.05;;;18.80;39.90;;;;;;5012613;28;20128;-64
2023/12/26 09:26:12;;;;;;;50.85;45.63;;;19.00;40.40;;;;;;5038462;28;20653;-66
2023/12/26 09:28:42;;;;;;;50.35;45.15;;;19.30;41.30;;;;;;5035762;28;20066;-65
2023/12/26 09:31:08;;;;;;;50.67;45.47;;;19.40;41.50;;;;;;5049004;28;20120;-65
2023/12/26 09:33:34;;;;;;;48.05;43.45;;;19.50;41.50;;;;;;5035202;28;20116;-69
2023/12/26 09:35:59;;;;;;;47.38;42.70;;;19.40;40.90;;;;;;5048804;28;20037;-67
2023/12/26 09:38:25;;;;;;;47.35;42.60;;;19.50;41.30;;;;;;5043374;28;20112;-63
2023/12/26 09:44:14;;;;;;;41.65;37.70;;;19.70;39.80;;;;;;5029940;28;20040;-68
2023/12/26 09:46:39;;;;;;;41.10;37.13;;;19.70;41.20;;;;;;5028932;28;20025;-65
2023/12/26 09:49:05;;;;;;;37.58;33.92;;;19.80;40.60;;;;;;5045613;28;20361;-64
2023/12/26 09:51:37;;;;;;;34.05;30.88;;;19.90;41.40;;;;;;5051348;28;20025;-63
2023/12/26 09:54:04;;;;;;;33.42;30.23;;;20.10;41.70;;;;;;5050506;28;20029;-67
2023/12/26 09:56:33;;;;;;;33.55;30.20;;;20.30;40.80;;;;;;5048444;28;20092;-70
2023/12/26 09:59:01;;;;;;;33.28;30.17;;;20.20;39.80;;;;;;5052028;28;20045;-67
2023/12/26 10:01:27;;;;;;;34.05;30.65;;;20.10;40.50;;;;;;5050050;28;20082;-71
2023/12/26 10:03:56;;;;;;;31.95;28.83;;;20.20;39.60;;;;;;5034653;28;20135;-62
2023/12/26 10:06:23;;;;;;;32.70;29.70;;;20.40;39.80;;;;;;5040676;28;20029;-66
2023/12/26 10:08:49;;;;;;;33.30;30.08;;;20.60;38.30;;;;;;5040614;28;20025;-61
2023/12/26 10:11:15;;;;;;;40.25;36.35;;;20.90;39.10;;;;;;5051407;28;20056;-64
2023/12/26 10:13:50;;;;;;;41.15;37.25;;;21.10;38.40;;;;;;5051070;28;20119;-65
2023/12/26 10:16:17;;;;;;;39.80;35.88;;;21.30;39.50;;;;;;5051176;28;20090;-65
2023/12/26 10:18:43;;;;;;;35.97;32.63;;;21.40;37.30;;;;;;5052616;28;20415;-65
2023/12/26 10:21:09;;;;;;;33.28;30.08;;;21.60;37.50;;;;;;5050599;28;20017;-67
2023/12/26 10:23:34;;;;;;;34.42;30.90;;;21.70;36.30;;;;;;5052699;28;20036;-63
2023/12/26 10:26:01;;;;;;;32.08;29.08;;;21.90;36.70;;;;;;5051677;28;20032;-64
2023/12/26 10:28:29;;;;;;;30.60;27.83;;;21.70;35.90;;;;;;5032375;28;20044;-66
2023/12/26 10:30:56;;;;;;;32.65;29.65;;;21.90;36.10;;;;;;5041476;28;20020;-63
2023/12/26 10:33:28;;;;;;;26.52;23.80;;;22.10;35.80;;;;;;5052772;28;20361;-67
2023/12/26 10:36:04;;;;;;;21.30;19.20;;;22.10;34.90;;;;;;5042923;28;20400;-66
2023/12/26 10:38:30;;;;;;;17.10;15.50;;;21.90;34.50;;;;;;5045227;28;20124;-60
2023/12/26 10:41:00;;;;;;;19.73;17.55;;;21.50;34.70;;;;;;5042513;28;20104;-63
2023/12/26 10:43:29;;;;;;;19.15;17.15;;;21.40;36.00;;;;;;5052138;28;20021;-66
2023/12/26 10:45:59;;;;;;;14.63;13.10;;;21.50;35.80;;;;;;5050821;28;20028;-68
2023/12/26 10:48:32;;;;;;;18.35;16.45;;;21.30;34.80;;;;;;5050200;28;20387;-67
2023/12/26 10:51:00;;;;;;;16.87;15.27;;;21.10;35.70;;;;;;5050399;28;20052;-60
2023/12/26 10:53:38;;;;;;;16.88;15.27;;;21.10;36.40;;;;;;5048516;28;20242;-66
2023/12/26 10:56:06;;;;;;;17.02;15.43;;;21.20;36.80;;;;;;5029864;28;20024;-61
2023/12/26 10:58:32;;;;;;;14.45;12.98;;;21.40;36.40;;;;;;5031592;28;20049;-64
2023/12/26 11:00:58;;;;;;;17.20;15.40;;;21.30;36.40;;;;;;5035467;28;20091;-66
2023/12/26 11:03:27;;;;;;;15.02;13.65;;;21.40;36.20;;;;;;5031631;28;20025;-69
2023/12/26 11:05:53;;;;;;;22.30;20.10;;;21.50;36.50;;;;;;5032821;28;20040;-64
2023/12/26 11:08:19;;;;;;;20.83;18.77;;;21.80;35.70;;;;;;5036907;28;20025;-64
2023/12/26 11:10:46;;;;;;;18.13;16.42;;;22.00;35.90;;;;;;5050278;28;20021;-62
2023/12/26 11:13:12;;;;;;;25.67;23.02;;;22.10;35.60;;;;;;5056378;28;20067;-64
2023/12/26 11:15:39;;;;;;;19.33;17.33;;;22.30;35.30;;;;;;5054416;28;20529;-66
2023/12/26 11:18:05;;;;;;;20.08;18.27;;;22.40;35.90;;;;;;5054018;28;20021;-65
2023/12/26 11:20:32;;;;;;;17.05;15.43;;;22.70;35.50;;;;;;5049888;28;20364;-60
2023/12/26 11:22:58;;;;;;;12.68;11.48;;;22.90;34.50;;;;;;5039055;28;20120;-67
2023/12/26 11:25:24;;;;;;;9.98;9.00;;;23.00;34.80;;;;;;5043910;28;20033;-64
2023/12/26 11:27:51;;;;;;;13.38;12.00;;;22.60;35.10;;;;;;5050245;28;20028;-68
2023/12/26 11:30:17;;;;;;;9.02;8.23;;;22.40;35.40;;;;;;5052368;28;20467;-65
2023/12/26 11:32:43;;;;;;;6.22;4.97;;;22.50;35.10;;;;;;5053666;28;20025;-67
2023/12/26 11:35:08;;;;;;;5.10;4.70;;;22.70;35.50;;;;;;5054501;28;20029;-62
2023/12/26 11:37:34;;;;;;;5.43;4.93;;;22.80;34.80;;;;;;5052649;28;20025;-64
2023/12/26 11:40:00;;;;;;;4.70;4.30;;;22.80;34.70;;;;;;5053168;28;20108;-66
2023/12/26 11:42:26;;;;;;;6.55;5.82;;;23.00;34.80;;;;;;5050939;28;20396;-66
2023/12/26 11:44:52;;;;;;;6.13;5.63;;;23.20;34.20;;;;;;5051104;28;20028;-63
2023/12/26 11:47:18;;;;;;;7.28;5.50;;;23.50;34.00;;;;;;5050900;28;20438;-60
2023/12/26 11:49:43;;;;;;;4.88;4.40;;;23.50;33.80;;;;;;5052178;28;20052;-65
2023/12/26 11:52:09;;;;;;;4.53;4.10;;;23.60;33.50;;;;;;5046673;28;20233;-63
2023/12/26 11:54:35;;;;;;;4.30;3.78;;;23.70;33.20;;;;;;5050881;28;20025;-68
2023/12/26 11:57:00;;;;;;;5.32;4.82;;;23.80;33.10;;;;;;5047941;28;20036;-66
2023/12/26 11:59:26;;;;;;;7.18;5.78;;;23.80;33.10;;;;;;5041192;28;20144;-64
2023/12/26 12:01:52;;;;;;;6.70;6.00;;;23.90;32.80;;;;;;5051628;28;20446;-64
2023/12/26 12:04:18;;;;;;;7.60;6.90;;;23.80;32.70;;;;;;5050763;28;20467;-60
2023/12/26 12:07:10;;;;;;;8.23;7.43;;;23.70;32.70;;;;;;5055213;28;20032;-67
2023/12/26 12:09:37;;;;;;;5.82;5.22;;;23.70;33.60;;;;;;5053595;28;20044;-61
2023/12/26 12:12:03;;;;;;;6.93;5.13;;;23.70;34.60;;;;;;5052381;28;20037;-62
2023/12/26 12:14:29;;;;;;;6.07;5.47;;;23.50;33.50;;;;;;5053556;28;20021;-61
2023/12/26 12:17:17;;;;;;;5.30;4.80;;;23.80;34.50;;;;;;5055605;28;20033;-63
2023/12/26 12:19:44;;;;;;;5.75;5.10;;;24.00;32.80;;;;;;5052803;28;20484;-63
2023/12/26 12:22:25;;;;;;;10.38;8.90;;;24.10;32.10;;;;;;5051033;28;20021;-67
2023/12/26 12:24:51;;;;;;;8.32;7.72;;;24.20;31.70;;;;;;5051018;28;20520;-60
2023/12/26 12:27:17;;;;;;;11.68;10.57;;;24.10;32.40;;;;;;5051150;28;20708;-61
2023/12/26 12:30:01;;;;;;;12.57;11.38;;;24.20;33.00;;;;;;5049165;28;20064;-62
2023/12/26 12:32:31;;;;;;;30.52;27.48;;;24.20;34.20;;;;;;5051983;28;20024;-66
2023/12/26 12:35:29;;;;;;;25.13;22.75;;;23.90;33.40;;;;;;5053143;28;20245;-69
2023/12/26 12:37:55;;;;;;;44.65;39.88;;;23.40;34.00;;;;;;5053851;28;20064;-64
2023/12/26 12:40:21;;;;;;;30.83;27.80;;;23.10;34.80;;;;;;5055163;28;20060;-64